Time;durP1;ratioP1;P1;durP2;ratioP2;P2;SDS_P1;SDS_P2;PMS_P1;PMS_P2;Temp;Humidity;BMP_temperature;BMP_pressure;BME280_temperature;BME280_humidity;BME280_pressure;Samples;Min_cycle;Max_cycle;Signal;HPM_P1;HPM_P2
2021/05/10 00:02:06;;;;;;;7.33;1.70;;;;;;;7.48;61.98;98348.89;1779929;79;23035;-63
2021/05/10 00:04:48;;;;;;;4.65;2.12;;;;;;;7.46;64.20;98350.78;1819503;79;22941;-65
2021/05/10 00:07:30;;;;;;;3.92;1.82;;;;;;;7.40;63.03;98351.21;1778567;79;23031;-65
2021/05/10 00:10:10;;;;;;;1.75;1.20;;;;;;;7.35;64.92;98356.38;1819655;79;22575;-63
2021/05/10 00:12:52;;;;;;;2.05;1.47;;;;;;;7.29;64.30;98353.77;1779795;79;23031;-63
2021/05/10 00:15:30;;;;;;;3.90;1.95;;;;;;;7.26;63.16;98358.34;1823596;77;22809;-64
2021/05/10 00:18:06;;;;;;;4.00;1.92;;;;;;;7.22;63.81;98357.73;1765237;79;28740;-64
2021/05/10 00:20:45;;;;;;;2.85;1.77;;;;;;;7.32;63.64;98357.88;1819509;79;22945;-64
2021/05/10 00:23:23;;;;;;;3.12;1.87;;;;;;;7.24;62.93;98358.44;1779705;79;22657;-63
2021/05/10 00:26:02;;;;;;;2.52;1.50;;;;;;;7.21;62.92;98357.84;1779860;79;22719;-64
2021/05/10 00:28:41;;;;;;;2.85;1.45;;;;;;;7.18;61.50;98366.64;1823690;77;23435;-62
2021/05/10 00:31:17;;;;;;;2.12;1.10;;;;;;;7.15;62.10;98362.54;1780568;79;23070;-68
2021/05/10 00:33:59;;;;;;;2.30;1.42;;;;;;;7.12;63.51;98362.73;1778831;79;23048;-62
2021/05/10 00:36:41;;;;;;;2.85;1.57;;;;;;;7.08;62.90;98351.48;1819556;79;23451;-63
2021/05/10 00:39:21;;;;;;;4.42;1.80;;;;;;;7.03;63.57;98350.52;1850323;77;22576;-62
2021/05/10 00:41:57;;;;;;;3.95;2.15;;;;;;;7.00;63.07;98357.66;1807979;77;28623;-63
2021/05/10 00:44:35;;;;;;;2.30;1.55;;;;;;;7.10;63.00;98354.76;1823894;77;23062;-62
2021/05/10 00:47:13;;;;;;;3.72;1.82;;;;;;;7.00;62.80;98347.33;1850252;76;23031;-64
2021/05/10 00:50:12;;;;;;;1.67;1.40;;;;;;;6.95;63.17;98351.53;1850109;76;23026;-64
2021/05/10 00:52:52;;;;;;;7.80;2.00;;;;;;;6.89;64.41;98348.08;1823647;77;23452;-64
2021/05/10 00:55:51;;;;;;;1.80;1.15;;;;;;;6.84;64.13;98346.78;1779695;79;23476;-64
2021/05/10 00:58:29;;;;;;;2.15;1.60;;;;;;;6.79;64.94;98348.86;1779811;79;23034;-64
2021/05/10 01:01:08;;;;;;;2.05;1.37;;;;;;;6.70;68.00;98346.47;1779781;79;23089;-63
2021/05/10 01:03:48;;;;;;;2.37;1.22;;;;;;;6.64;67.99;98348.20;1819554;79;22956;-64
2021/05/10 01:06:25;;;;;;;1.45;1.00;;;;;;;6.62;67.29;98348.77;1779949;79;23084;-63
2021/05/10 01:09:06;;;;;;;4.55;1.55;;;;;;;6.57;66.92;98351.69;1779722;79;22892;-62
2021/05/10 01:11:44;;;;;;;1.40;1.17;;;;;;;6.56;66.47;98345.34;1779722;79;22751;-64
2021/05/10 01:14:36;;;;;;;2.00;1.50;;;;;;;6.54;66.84;98345.44;1823618;77;22679;-63
2021/05/10 01:17:15;;;;;;;1.95;1.42;;;;;;;6.50;66.88;98345.29;1823695;77;23143;-64
2021/05/10 01:20:07;;;;;;;3.05;1.55;;;;;;;6.47;66.15;98336.95;1780014;79;23071;-64
2021/05/10 01:22:55;;;;;;;3.17;1.30;;;;;;;6.41;65.91;98338.22;1823740;77;23101;-64
2021/05/10 01:25:33;;;;;;;2.83;1.80;;;;;;;6.41;65.17;98343.38;1832674;76;28084;-65
2021/05/10 01:28:11;;;;;;;1.92;1.50;;;;;;;6.54;64.11;98340.73;1780337;79;23498;-65
2021/05/10 01:30:50;;;;;;;2.30;1.60;;;;;;;6.48;64.27;98347.63;1779929;79;23055;-64
2021/05/10 01:33:29;;;;;;;3.27;1.80;;;;;;;6.44;65.90;98344.91;1779837;79;22718;-65
2021/05/10 01:36:07;;;;;;;3.20;1.52;;;;;;;6.38;64.36;98335.83;1779790;79;23052;-65
2021/05/10 01:38:47;;;;;;;1.75;1.27;;;;;;;6.36;63.94;98340.28;1823634;77;23066;-64
2021/05/10 01:41:28;;;;;;;2.62;1.42;;;;;;;6.32;63.81;98338.02;1778810;79;22860;-66
2021/05/10 01:44:07;;;;;;;3.40;2.00;;;;;;;6.30;63.49;98345.06;1816907;79;20669;-65
2021/05/10 01:47:06;;;;;;;3.20;1.42;;;;;;;6.25;63.90;98342.80;1807703;78;23071;-65
2021/05/10 01:50:20;;;;;;;4.70;2.37;;;;;;;6.21;65.54;98349.09;1847139;76;48846;-62
2021/05/10 01:52:59;;;;;;;4.85;1.47;;;;;;;6.29;65.20;98349.39;1850238;76;23456;-65
2021/05/10 01:55:38;;;;;;;2.40;1.30;;;;;;;6.16;64.90;98348.12;1823921;77;23016;-63
2021/05/10 01:58:15;;;;;;;3.58;2.15;;;;;;;6.10;66.59;98352.42;1780068;79;23030;-63
2021/05/10 02:00:55;;;;;;;2.52;1.60;;;;;;;6.05;65.71;98357.06;1823760;77;23433;-64
2021/05/10 02:03:38;;;;;;;2.22;1.40;;;;;;;6.03;65.08;98355.03;1778557;79;23452;-62
2021/05/10 02:06:16;;;;;;;4.90;1.80;;;;;;;5.99;64.93;98353.59;1823664;77;23028;-63
2021/05/10 02:08:54;;;;;;;1.55;1.20;;;;;;;5.96;65.57;98355.09;1850040;77;23070;-64
2021/05/10 02:11:32;;;;;;;3.33;1.55;;;;;;;5.92;66.38;98356.69;1819555;79;22938;-63
2021/05/10 02:14:10;;;;;;;4.58;2.05;;;;;;;5.85;66.60;98343.38;1823734;77;22678;-63
2021/05/10 02:17:08;;;;;;;4.40;2.40;;;;;;;5.80;66.85;98351.08;1856680;76;31041;-67
2021/05/10 02:20:08;;;;;;;4.17;2.45;;;;;;;5.89;66.38;98351.30;1789259;78;28234;-64
2021/05/10 02:26:06;;;;;;;1.77;1.35;;;;;;;5.82;67.53;98338.44;1780279;79;23076;-63
2021/05/10 02:28:45;;;;;;;4.97;2.52;;;;;;;5.73;66.41;98338.59;1832457;76;27951;-64
2021/05/10 02:31:23;;;;;;;3.50;2.35;;;;;;;5.83;66.55;98336.23;1823706;77;23042;-64
2021/05/10 02:34:03;;;;;;;2.83;1.75;;;;;;;5.73;68.10;98346.31;1779705;79;23568;-64
2021/05/10 02:36:40;;;;;;;9.00;2.90;;;;;;;5.63;67.26;98344.01;1780014;79;22707;-62
2021/05/10 02:39:24;;;;;;;5.90;2.52;;;;;;;5.60;67.37;98353.20;1823788;77;23016;-64
2021/05/10 02:42:03;;;;;;;2.83;2.33;;;;;;;5.52;66.92;98351.63;1823605;77;23015;-64
2021/05/10 02:44:46;;;;;;;6.35;1.85;;;;;;;5.50;66.53;98349.61;1823682;77;23471;-62
2021/05/10 02:47:25;;;;;;;4.42;2.25;;;;;;;5.48;67.68;98351.47;1819606;79;23026;-62
2021/05/10 02:50:08;;;;;;;4.35;2.17;;;;;;;5.44;67.00;98359.50;1850179;76;22874;-64
2021/05/10 02:52:48;;;;;;;3.55;2.45;;;;;;;5.42;66.78;98357.47;1823720;77;23103;-64
2021/05/10 02:55:27;;;;;;;5.97;2.30;;;;;;;5.40;66.73;98365.31;1779829;79;23481;-64
2021/05/10 02:58:05;;;;;;;3.67;1.57;;;;;;;5.38;67.59;98367.15;1823764;77;23084;-63
2021/05/10 03:00:43;;;;;;;7.33;2.35;;;;;;;5.39;66.78;98367.98;1779721;79;23053;-64
2021/05/10 03:03:28;;;;;;;4.78;2.33;;;;;;;5.38;66.42;98368.44;1819621;79;23059;-62
2021/05/10 03:06:10;;;;;;;3.87;2.33;;;;;;;5.39;66.13;98367.98;1778567;79;23584;-63
2021/05/10 03:08:48;;;;;;;6.65;2.20;;;;;;;5.36;65.66;98357.89;1823691;77;23017;-64
2021/05/10 03:11:31;;;;;;;2.77;1.92;;;;;;;5.34;69.46;98361.01;1851163;77;22590;-65
2021/05/10 03:14:11;;;;;;;5.55;1.87;;;;;;;5.28;68.66;98357.56;1779063;79;22709;-63
2021/05/10 03:16:54;;;;;;;5.60;2.20;;;;;;;5.19;68.17;98361.09;1582785;90;21625;-63
2021/05/10 03:19:36;;;;;;;3.62;2.00;;;;;;;5.24;67.89;98360.34;1819446;79;23022;-64
2021/05/10 03:22:14;;;;;;;4.70;2.02;;;;;;;5.25;70.13;98368.41;1779701;79;23050;-63
2021/05/10 03:24:57;;;;;;;2.72;1.90;;;;;;;5.22;69.63;98357.48;1823601;77;23048;-64
2021/05/10 03:27:41;;;;;;;4.45;2.30;;;;;;;5.22;69.49;98357.03;1780000;79;23068;-62
2021/05/10 03:30:24;;;;;;;4.50;2.27;;;;;;;5.25;68.38;98357.31;1780046;79;23023;-63
2021/05/10 03:33:07;;;;;;;7.58;2.92;;;;;;;5.32;69.49;98364.99;1763209;79;28250;-61
2021/05/10 03:35:43;;;;;;;6.00;3.08;;;;;;;5.47;69.30;98352.39;1833647;76;28179;-63
2021/05/10 03:38:20;;;;;;;4.65;2.85;;;;;;;5.63;68.87;98352.20;1850012;76;23735;-61
2021/05/10 03:40:59;;;;;;;4.22;2.52;;;;;;;5.59;67.84;98356.73;1779687;79;22835;-63
2021/05/10 03:43:37;;;;;;;5.15;2.45;;;;;;;5.61;68.81;98357.44;1850349;77;22771;-64
2021/05/10 03:46:18;;;;;;;5.58;3.02;;;;;;;5.64;68.98;98363.67;1823700;77;23055;-64
2021/05/10 03:48:56;;;;;;;6.85;2.20;;;;;;;5.67;68.69;98362.66;1850333;76;23048;-62
2021/05/10 03:51:37;;;;;;;3.83;1.75;;;;;;;5.70;67.60;98363.28;1823911;77;23083;-61
2021/05/10 03:54:17;;;;;;;3.58;1.90;;;;;;;5.76;66.04;98358.16;1819810;79;22948;-63
2021/05/10 03:57:07;;;;;;;3.72;1.80;;;;;;;5.81;66.05;98359.97;1779511;79;23087;-64
2021/05/10 04:02:43;;;;;;;2.60;1.90;;;;;;;5.93;67.15;98364.34;1823610;77;23019;-65
2021/05/10 04:16:54;;;;;;;4.00;2.10;;;;;;;6.25;66.12;98363.42;1823703;77;23073;-64
2021/05/10 04:19:32;;;;;;;2.98;1.95;;;;;;;6.32;64.24;98365.11;1779987;79;23466;-64
2021/05/10 04:22:16;;;;;;;2.70;1.40;;;;;;;6.40;65.57;98358.48;1823605;77;22608;-66
2021/05/10 04:24:55;;;;;;;2.60;1.72;;;;;;;6.49;66.29;98362.19;1819561;79;22739;-62
2021/05/10 04:27:33;;;;;;;2.37;2.17;;;;;;;6.58;65.04;98357.19;1779916;79;24526;-63
2021/05/10 04:33:27;;;;;;;6.15;2.58;;;;;;;6.72;67.53;98359.27;1850337;76;23084;-63
2021/05/10 04:36:07;;;;;;;6.40;2.42;;;;;;;6.79;63.64;98361.77;1819468;79;23352;-64
2021/05/10 04:38:45;;;;;;;3.27;2.62;;;;;;;6.90;67.09;98359.23;1779733;79;22750;-66
2021/05/10 04:41:23;;;;;;;5.83;2.15;;;;;;;7.02;65.98;98367.39;1823218;77;23308;-65
2021/05/10 04:44:02;;;;;;;4.83;2.47;;;;;;;7.10;65.48;98363.33;1779506;79;23040;-64
2021/05/10 04:46:41;;;;;;;6.35;2.72;;;;;;;7.23;65.31;98374.89;1779683;79;23516;-64
2021/05/10 04:49:23;;;;;;;6.28;3.15;;;;;;;7.34;66.34;98368.94;1778514;79;22590;-64
2021/05/10 04:52:00;;;;;;;14.97;5.57;;;;;;;7.45;64.13;98372.38;1832461;76;30910;-62
2021/05/10 04:54:47;;;;;;;10.03;3.95;;;;;;;7.68;65.78;98360.79;1823872;77;23166;-66
2021/05/10 04:57:26;;;;;;;7.70;3.77;;;;;;;7.77;66.04;98371.74;1819584;79;22939;-64
2021/05/10 05:00:11;;;;;;;6.12;3.75;;;;;;;7.87;65.30;98369.63;1779790;79;23145;-65
2021/05/10 05:02:51;;;;;;;9.55;4.25;;;;;;;8.07;65.92;98375.42;1779546;79;22751;-64
2021/05/10 05:05:30;;;;;;;9.00;3.80;;;;;;;8.32;65.21;98376.16;1779722;79;22766;-65
2021/05/10 05:08:12;;;;;;;5.95;4.67;;;;;;;8.49;63.70;98371.77;1778789;79;23079;-64
2021/05/10 05:10:50;;;;;;;6.62;3.17;;;;;;;8.64;62.69;98376.25;1823545;77;23436;-65
2021/05/10 05:13:30;;;;;;;11.70;5.05;;;;;;;8.79;61.97;98371.98;1850287;76;23042;-65
2021/05/10 05:16:09;;;;;;;5.47;3.58;;;;;;;8.92;60.91;98375.22;1779773;79;23116;-65
2021/05/10 05:18:47;;;;;;;7.30;3.87;;;;;;;9.02;60.81;98365.78;1779872;79;23069;-61
2021/05/10 05:21:24;;;;;;;4.00;2.70;;;;;;;9.15;60.42;98369.95;1849676;77;23044;-61
2021/05/10 05:24:09;;;;;;;6.50;2.70;;;;;;;9.34;59.55;98367.52;1823846;77;23026;-60
2021/05/10 05:26:48;;;;;;;4.30;2.67;;;;;;;9.46;59.05;98373.00;1780302;79;23042;-68
2021/05/10 05:29:29;;;;;;;5.37;2.98;;;;;;;9.58;58.39;98378.95;1778988;79;23092;-60
2021/05/10 05:32:08;;;;;;;4.50;2.33;;;;;;;9.73;58.50;98372.48;1805414;79;22775;-61
2021/05/10 05:34:52;;;;;;;4.75;2.45;;;;;;;9.82;58.31;98377.75;1753052;79;22437;-62
2021/05/10 05:37:41;;;;;;;9.35;3.42;;;;;;;9.95;57.97;98369.77;1823608;77;23233;-61
2021/05/10 05:40:25;;;;;;;4.17;2.42;;;;;;;10.07;58.19;98366.14;1823238;77;23471;-61
2021/05/10 05:43:24;;;;;;;3.37;2.35;;;;;;;10.25;57.65;98365.91;1846421;77;23024;-64
2021/05/10 05:45:59;;;;;;;6.03;2.58;;;;;;;10.33;56.85;98366.55;1849454;76;23021;-64
2021/05/10 05:48:38;;;;;;;4.42;3.30;;;;;;;10.42;56.89;98363.17;1812808;77;23507;-64
2021/05/10 05:51:16;;;;;;;7.35;3.12;;;;;;;10.52;56.87;98369.20;1783305;79;23487;-65
2021/05/10 05:53:55;;;;;;;6.78;3.22;;;;;;;10.66;56.92;98358.94;1823179;77;23083;-65
2021/05/10 05:56:33;;;;;;;4.58;2.80;;;;;;;10.74;56.60;98358.59;1823498;77;22745;-67
2021/05/10 05:59:11;;;;;;;3.75;2.47;;;;;;;10.83;56.73;98362.98;1779979;79;23156;-65
2021/05/10 06:01:48;;;;;;;7.80;2.47;;;;;;;10.98;56.63;98357.39;1780537;79;23517;-64
2021/05/10 06:04:29;;;;;;;4.75;1.98;;;;;;;11.15;56.33;98364.05;1778981;79;23031;-64
2021/05/10 06:07:07;;;;;;;3.20;2.22;;;;;;;11.28;56.29;98351.58;1848203;77;22929;-62
2021/05/10 06:09:50;;;;;;;6.70;2.47;;;;;;;11.42;56.12;98350.35;1850948;76;22682;-63
2021/05/10 06:12:28;;;;;;;4.03;2.10;;;;;;;11.59;55.70;98356.16;1819517;79;22673;-63
2021/05/10 06:15:08;;;;;;;5.00;2.85;;;;;;;11.80;55.04;98360.72;1823595;77;23470;-63
2021/05/10 06:17:46;;;;;;;2.10;1.85;;;;;;;11.99;54.19;98356.42;1823790;77;23208;-64
2021/05/10 06:20:27;;;;;;;2.77;2.35;;;;;;;12.11;53.45;98354.81;1779175;79;23024;-69
2021/05/10 06:23:13;;;;;;;2.95;2.40;;;;;;;12.27;52.93;98348.52;1780547;79;23020;-68
2021/05/10 06:25:52;;;;;;;6.12;2.40;;;;;;;12.43;52.66;98343.16;1819577;79;23367;-62
2021/05/10 06:28:30;;;;;;;4.75;2.87;;;;;;;12.52;52.65;98345.73;1779666;79;22598;-62
2021/05/10 06:31:11;;;;;;;5.22;2.50;;;;;;;12.74;52.79;98343.19;1779683;79;23048;-62
2021/05/10 06:33:49;;;;;;;3.60;2.15;;;;;;;12.91;51.69;98338.49;1819576;79;22699;-67
2021/05/10 06:36:25;;;;;;;2.77;2.10;;;;;;;13.07;51.95;98337.31;1823592;77;23044;-66
2021/05/10 06:39:04;;;;;;;6.22;1.90;;;;;;;13.26;50.97;98332.00;1844440;76;23037;-67
2021/05/10 06:41:40;;;;;;;7.90;5.12;;;;;;;13.43;50.65;98322.50;1789396;77;28662;-68
2021/05/10 06:44:18;;;;;;;5.85;2.92;;;;;;;13.69;50.15;98316.01;1805196;77;23372;-67
2021/05/10 06:46:54;;;;;;;6.20;2.47;;;;;;;13.82;49.56;98320.31;1824125;76;23105;-66
2021/05/10 06:49:32;;;;;;;;;;;;;;;14.00;49.24;98321.57;1807860;77;23034;-67
2021/05/10 06:52:11;;;;;;;4.12;2.08;;;;;;;14.12;48.89;98326.86;1766325;78;22680;-66
2021/05/10 06:54:50;;;;;;;1.95;1.65;;;;;;;14.26;49.35;98321.03;1805060;77;22970;-66
2021/05/10 06:57:35;;;;;;;2.42;1.80;;;;;;;14.44;49.35;98317.86;1811428;77;23069;-66
2021/05/10 07:00:37;;;;;;;4.65;2.40;;;;;;;14.48;48.19;98295.66;1766275;79;23116;-66
2021/05/10 07:03:16;;;;;;;2.85;1.87;;;;;;;14.83;48.05;98313.38;1766589;79;23124;-66
2021/05/10 07:05:52;;;;;;;3.90;2.30;;;;;;;15.02;47.68;98299.52;1793073;79;28200;-67
2021/05/10 07:08:30;;;;;;;5.37;1.55;;;;;;;15.26;46.76;98300.51;1812333;78;23078;-66
2021/05/10 07:11:08;;;;;;;;;;;;;;;15.44;45.95;98299.87;1824381;77;23405;-66
2021/05/10 07:13:43;;;;;;;;;;;;;;;15.58;45.58;98297.42;1791776;79;23106;-67
2021/05/10 07:16:23;;;;;;;2.00;1.42;;;;;;;15.73;45.35;98291.49;1834079;76;22281;-67
2021/05/10 07:19:24;;;;;;;;;;;;;;;15.88;44.72;98295.88;1833820;76;22858;-68
2021/05/10 07:22:09;;;;;;;;;;;;;;;16.08;44.63;98287.14;1807832;77;22977;-67
2021/05/10 07:24:46;;;;;;;;;;;;;;;16.21;43.92;98284.80;1815733;77;22589;-67
2021/05/10 07:27:25;;;;;;;3.00;1.67;;;;;;;16.37;44.63;98288.67;1801120;79;28139;-67
2021/05/10 07:32:57;;;;;;;3.12;1.60;;;;;;;16.78;43.24;98276.66;1823626;77;22657;-67
2021/05/10 07:35:35;;;;;;;2.75;1.60;;;;;;;16.92;42.91;98279.86;1849921;76;23040;-67
2021/05/10 07:38:10;;;;;;;3.40;1.07;;;;;;;17.07;43.05;98283.34;1780381;79;23484;-67
2021/05/10 07:40:53;;;;;;;;;;;;;;;17.18;42.09;98274.23;1821874;79;23476;-66
2021/05/10 07:43:31;;;;;;;3.72;1.62;;;;;;;17.37;40.18;98273.73;1803498;79;28124;-63
2021/05/10 07:46:22;;;;;;;;;;;;;;;17.59;39.73;98271.58;1826058;77;23299;-64
2021/05/10 07:49:03;;;;;;;;;;;;;;;17.76;40.19;98266.98;1781438;79;23476;-64
2021/05/10 07:51:50;;;;;;;;;;;;;;;17.88;39.88;98261.60;1782343;79;23479;-66
2021/05/10 07:54:28;;;;;;;7.43;2.00;;;;;;;18.02;39.74;98258.96;1807880;77;28156;-68
2021/05/10 07:57:03;;;;;;;;;;;;;;;18.12;39.01;98261.82;1851914;76;23067;-67
2021/05/10 07:59:52;;;;;;;;;;;;;;;18.34;38.22;98257.75;1825797;77;23110;-62
2021/05/10 08:02:32;;;;;;;;;;;;;;;18.38;36.46;98253.75;1821665;79;22701;-64
2021/05/10 08:05:12;;;;;;;;;;;;;;;18.46;35.83;98264.16;1826204;77;23065;-63
2021/05/10 08:07:50;;;;;;;;;;;;;;;18.60;35.76;98265.14;1830410;77;23076;-66
2021/05/10 08:10:28;;;;;;;5.37;1.30;;;;;;;18.79;35.43;98249.27;1801123;79;28132;-65
2021/05/10 08:13:10;;;;;;;;;;;;;;;18.97;35.34;98252.27;1780878;79;22710;-64
2021/05/10 08:15:58;;;;;;;1.82;0.60;;;;;;;19.10;34.61;98251.08;1849588;77;22898;-63
2021/05/10 08:18:45;;;;;;;2.55;1.35;;;;;;;19.27;34.18;98248.97;1832391;76;28484;-67
2021/05/10 08:21:23;;;;;;;;;;;;;;;19.47;33.90;98249.16;1822410;79;22543;-63
2021/05/10 08:39:37;;;;;;;1.75;1.17;;;;;;;20.05;30.85;98222.33;1719900;82;22833;-71
2021/05/10 08:42:16;;;;;;;;;;;;;;;20.08;30.30;98218.48;1852445;76;23032;-69
2021/05/10 08:45:01;;;;;;;2.15;0.90;;;;;;;20.13;29.70;98222.17;1819402;79;23151;-69
2021/05/10 08:47:39;;;;;;;;;;;;;;;20.24;29.45;98220.28;1826189;77;23033;-64
2021/05/10 08:50:28;;;;;;;2.98;0.75;;;;;;;20.34;29.20;98214.67;1817033;79;21242;-65
2021/05/10 09:06:36;;;;;;;;;;;;;;;20.81;28.33;98191.33;1808519;78;22582;-64
2021/05/10 09:09:14;;;;;;;1.47;0.88;;;;;;;20.90;28.33;98180.05;1801112;79;28132;-69
2021/05/10 09:11:54;;;;;;;3.60;1.57;;;;;;;20.92;28.27;98187.27;1780266;79;23072;-68
2021/05/10 09:14:34;;;;;;;1.55;0.80;;;;;;;20.86;28.17;98177.00;1780309;79;22710;-69
2021/05/10 09:17:15;;;;;;;1.40;1.12;;;;;;;21.05;27.96;98171.44;1779528;79;23471;-69
2021/05/10 09:19:56;;;;;;;1.12;0.60;;;;;;;21.19;27.62;98174.39;1819134;79;22979;-68
2021/05/10 09:22:50;;;;;;;3.50;0.90;;;;;;;21.33;27.51;98174.67;1779609;79;23039;-63
2021/05/10 09:25:43;;;;;;;2.08;0.88;;;;;;;21.39;27.17;98168.58;1779561;79;23066;-65
2021/05/10 09:28:38;;;;;;;4.33;1.00;;;;;;;21.53;27.37;98173.31;1849552;77;23118;-67
2021/05/10 09:31:20;;;;;;;1.17;0.95;;;;;;;21.45;28.29;98172.20;1778404;79;22841;-67
2021/05/10 09:33:59;;;;;;;2.80;1.55;;;;;;;21.98;27.38;98163.15;1819294;79;22518;-66
2021/05/10 09:36:42;;;;;;;1.90;1.20;;;;;;;22.15;26.94;98162.95;1819193;79;22944;-67
2021/05/10 09:39:35;;;;;;;1.00;0.90;;;;;;;22.49;26.99;98160.95;1819304;79;22390;-65
2021/05/10 09:42:26;;;;;;;16.40;3.60;;;;;;;22.63;27.14;98151.88;1819365;79;23607;-67
2021/05/10 09:45:10;;;;;;;5.35;2.52;;;;;;;22.99;26.82;98146.75;1850667;77;23258;-67
2021/05/10 09:47:48;;;;;;;2.33;1.27;;;;;;;23.13;26.04;98158.02;1779772;79;23023;-64
2021/05/10 09:50:41;;;;;;;3.85;1.00;;;;;;;23.29;25.74;98157.97;1778881;79;23114;-63
2021/05/10 09:53:49;;;;;;;0.75;0.72;;;;;;;23.60;25.32;98148.61;1823499;77;23137;-63
2021/05/10 09:56:31;;;;;;;1.42;0.95;;;;;;;23.61;25.76;98147.08;1819219;78;22200;-67
2021/05/10 09:59:14;;;;;;;3.50;1.45;;;;;;;23.92;25.27;98145.28;1823208;77;22871;-65
2021/05/10 10:21:50;;;;;;;0.88;0.72;;;;;;;25.29;23.43;98121.69;1655528;87;23125;-67
2021/05/10 10:24:27;;;;;;;3.17;1.22;;;;;;;25.28;22.38;98121.39;1849628;77;23084;-66
2021/05/10 10:27:18;;;;;;;1.37;0.93;;;;;;;25.25;22.52;98123.19;1823635;77;23477;-66
2021/05/10 10:30:00;;;;;;;1.60;1.22;;;;;;;25.37;23.04;98127.95;1778801;79;23044;-66
2021/05/10 10:32:38;;;;;;;2.42;1.35;;;;;;;25.43;22.75;98119.87;1823348;77;22666;-67
2021/05/10 10:35:28;;;;;;;0.98;0.75;;;;;;;25.96;22.20;98113.50;1779863;79;23040;-67
2021/05/10 11:44:46;;;;;;;2.20;0.80;;;;;;;28.69;18.86;98031.36;1721759;83;23088;-64
2021/05/10 11:47:39;;;;;;;0.85;0.82;;;;;;;28.44;18.52;98029.83;1823354;77;23073;-63
2021/05/10 11:50:45;;;;;;;2.00;1.02;;;;;;;28.52;18.58;98024.54;1819140;79;22579;-64
2021/05/10 11:53:31;;;;;;;1.35;0.90;;;;;;;28.51;18.43;98009.04;1832416;76;28433;-64
2021/05/10 11:56:08;;;;;;;1.87;1.22;;;;;;;28.64;18.80;98015.25;1823382;77;23402;-64
2021/05/10 11:58:57;;;;;;;1.67;0.75;;;;;;;28.55;19.15;98007.99;1823172;77;23016;-64
2021/05/10 12:01:40;;;;;;;3.10;1.55;;;;;;;28.39;19.04;98008.94;1823396;77;23037;-65
2021/05/10 12:04:29;;;;;;;2.27;0.80;;;;;;;28.42;19.04;98009.23;1823248;77;23079;-65
2021/05/10 12:39:18;;;;;;;1.37;0.85;;;;;;;31.05;15.70;97962.48;1823400;77;22916;-69
2021/05/10 12:42:20;;;;;;;1.72;0.98;;;;;;;30.84;15.63;97960.13;1779703;79;22361;-69
2021/05/10 12:45:03;;;;;;;0.60;0.53;;;;;;;30.91;15.57;97959.30;1823261;77;23300;-65
2021/05/10 12:47:51;;;;;;;1.17;0.80;;;;;;;30.59;16.03;97955.09;1779789;79;23466;-66
2021/05/10 14:23:05;;;;;;;1.80;1.25;;;;;;;31.81;16.09;97875.39;1653524;86;23255;-65
2021/05/10 14:25:53;;;;;;;5.58;1.42;;;;;;;31.73;16.21;97872.77;1819186;79;22797;-66
2021/05/10 14:58:36;;;;;;;1.17;1.00;;;;;;;30.11;17.43;97857.38;1746820;80;23625;-68
2021/05/10 15:01:15;;;;;;;1.50;0.60;;;;;;;30.17;17.21;97852.80;1779603;79;23055;-68
2021/05/10 15:03:54;;;;;;;0.80;0.80;;;;;;;30.29;17.10;97851.17;1849793;77;23009;-69
2021/05/10 15:06:35;;;;;;;1.52;0.62;;;;;;;30.45;16.38;97844.20;1823190;77;23097;-67
2021/05/10 15:09:13;;;;;;;1.72;0.70;;;;;;;30.56;15.75;97845.77;1779307;79;23516;-69
2021/05/10 15:34:39;;;;;;;1.62;0.50;;;;;;;29.86;18.25;97834.64;1650981;85;23246;-66
2021/05/10 15:37:16;;;;;;;2.95;1.05;;;;;;;30.18;17.59;97832.19;1819194;79;23378;-66
2021/05/10 15:40:13;;;;;;;5.65;1.65;;;;;;;30.20;17.53;97838.86;1823227;77;23000;-66
2021/05/10 15:42:49;;;;;;;2.55;0.82;;;;;;;30.27;17.16;97840.75;1823351;77;22866;-66
2021/05/10 15:45:27;;;;;;;1.98;1.00;;;;;;;30.11;17.23;97840.51;1844461;77;23267;-65
2021/05/10 15:48:06;;;;;;;1.07;0.68;;;;;;;30.43;16.41;97842.31;1832404;77;23026;-66
2021/05/10 15:50:44;;;;;;;1.72;1.42;;;;;;;30.40;17.21;97838.81;1779310;79;23088;-70
2021/05/10 15:53:22;;;;;;;2.17;0.88;;;;;;;30.19;16.86;97835.13;1823373;77;23008;-68
2021/05/10 15:56:03;;;;;;;0.80;0.65;;;;;;;30.04;17.07;97835.95;1850188;76;22690;-65
2021/05/10 15:58:42;;;;;;;0.82;0.70;;;;;;;29.82;17.64;97832.73;1764228;79;23104;-70
2021/05/10 16:01:32;;;;;;;2.45;0.60;;;;;;;29.78;17.57;97836.49;1823280;77;22462;-69
2021/05/10 16:04:11;;;;;;;2.30;1.02;;;;;;;29.65;17.48;97838.36;1819500;77;22991;-68
2021/05/10 16:06:49;;;;;;;0.62;0.62;;;;;;;29.10;18.09;97845.25;1821256;77;23059;-67
2021/05/10 16:09:36;;;;;;;3.42;0.90;;;;;;;28.91;18.28;97843.33;1813315;76;38921;-70
2021/05/10 16:31:21;;;;;;;0.95;0.72;;;;;;;28.89;18.27;97840.91;1795965;79;22940;-64
2021/05/10 16:33:59;;;;;;;1.02;0.70;;;;;;;29.00;18.03;97844.41;1766722;79;25905;-64
2021/05/10 16:36:38;;;;;;;1.37;0.98;;;;;;;28.82;18.35;97840.88;1801286;77;23089;-65
2021/05/10 16:39:25;;;;;;;2.85;0.82;;;;;;;28.24;18.81;97848.88;1766995;79;22740;-65
2021/05/10 16:42:05;;;;;;;1.37;0.85;;;;;;;28.35;18.92;97842.25;1792325;79;22915;-67
2021/05/10 16:44:42;;;;;;;1.92;1.42;;;;;;;28.25;18.98;97842.98;1779906;79;23043;-64
2021/05/10 16:47:20;;;;;;;1.45;1.00;;;;;;;27.90;19.23;97844.09;1779829;79;23919;-63
2021/05/10 16:50:20;;;;;;;2.65;0.93;;;;;;;27.84;19.40;97844.05;1819283;79;22935;-63
2021/05/10 17:03:29;;;;;;;1.02;0.88;;;;;;;26.61;21.06;97840.91;1864374;75;23016;-65
2021/05/10 17:06:08;;;;;;;1.85;1.60;;;;;;;26.49;21.62;97842.89;1823492;77;23016;-64
2021/05/10 17:08:46;;;;;;;2.20;1.27;;;;;;;26.24;22.01;97843.87;1779653;79;23138;-65
2021/05/10 17:11:26;;;;;;;3.10;1.07;;;;;;;26.10;22.23;97843.92;1850323;76;23020;-71
2021/05/10 17:14:04;;;;;;;3.25;1.35;;;;;;;25.97;22.21;97845.87;1823507;77;22997;-71
2021/05/10 17:16:52;;;;;;;1.52;0.90;;;;;;;25.67;22.83;97841.93;1779778;79;23497;-66
2021/05/10 17:19:32;;;;;;;4.60;1.15;;;;;;;25.50;23.10;97845.34;1823456;77;23165;-66
2021/05/10 17:22:09;;;;;;;3.27;2.00;;;;;;;25.47;23.21;97846.36;1828031;76;22819;-65
2021/05/10 17:24:47;;;;;;;2.80;1.25;;;;;;;25.36;23.62;97846.72;1766734;79;23075;-65
2021/05/10 17:27:27;;;;;;;0.82;0.82;;;;;;;25.25;24.08;97846.23;1766534;79;22951;-65
2021/05/10 17:42:37;;;;;;;3.87;1.92;;;;;;;24.10;26.94;97840.95;1790687;80;23091;-65
2021/05/10 17:45:15;;;;;;;4.85;1.75;;;;;;;23.94;28.02;97835.02;1809499;76;28172;-64
2021/05/10 17:47:58;;;;;;;3.52;1.10;;;;;;;23.90;28.38;97837.84;1794799;79;23624;-65
2021/05/10 17:50:34;;;;;;;2.10;1.30;;;;;;;23.57;29.16;97839.73;1823106;77;23207;-65
2021/05/10 17:53:14;;;;;;;1.67;1.40;;;;;;;23.32;29.43;97836.91;1779245;79;23467;-65
2021/05/10 17:56:04;;;;;;;5.60;1.42;;;;;;;23.06;30.45;97840.75;1823297;77;23055;-65
2021/05/10 17:58:42;;;;;;;4.58;1.52;;;;;;;22.86;30.86;97848.96;1816034;77;23506;-64
2021/05/10 18:19:15;;;;;;;3.87;1.95;;;;;;;21.24;36.50;97850.53;1643507;85;22804;-63
2021/05/10 18:25:07;;;;;;;4.20;2.08;;;;;;;20.73;37.26;97853.23;1823072;79;21223;-64
2021/05/10 18:27:44;;;;;;;6.20;1.57;;;;;;;20.42;38.32;97849.18;1819432;79;22628;-64
2021/05/10 18:30:22;;;;;;;3.98;1.82;;;;;;;20.21;38.94;97848.89;1811555;79;23061;-65
2021/05/10 18:33:00;;;;;;;7.37;2.60;;;;;;;19.94;39.52;97852.58;1764115;79;24270;-64
2021/05/10 18:35:35;;;;;;;4.40;1.98;;;;;;;19.80;39.79;97860.20;1829059;77;23049;-65
2021/05/10 18:38:15;;;;;;;5.33;1.85;;;;;;;19.73;40.24;97852.78;1813883;77;23171;-65
2021/05/10 18:40:53;;;;;;;6.28;2.15;;;;;;;19.55;40.77;97863.12;1785758;79;23323;-64
2021/05/10 18:43:33;;;;;;;5.03;2.25;;;;;;;19.37;41.24;97856.61;1819358;79;22956;-74
2021/05/10 18:46:11;;;;;;;4.05;2.10;;;;;;;19.20;41.99;97869.02;1779678;79;23039;-73
2021/05/10 18:48:52;;;;;;;;;;;;;;;19.08;40.02;97864.02;1777926;79;23177;-74
2021/05/10 18:51:28;;;;;;;3.40;1.32;;;;;;;19.02;39.42;97867.45;1767028;79;23082;-63
2021/05/10 18:54:07;;;;;;;;;;;;;;;18.97;39.30;97870.68;1769285;79;23076;-65
2021/05/10 18:56:47;;;;;;;4.27;1.60;;;;;;;18.94;39.08;97872.40;1806629;77;27898;-64
2021/05/10 18:59:25;;;;;;;;;;;;;;;19.04;39.61;97875.45;1800637;79;23054;-64
2021/05/10 19:02:06;;;;;;;;;;;;;;;18.90;40.64;97880.38;1806580;77;23063;-65
2021/05/10 19:04:53;;;;;;;;;;;;;;;18.69;41.93;97881.30;1801593;77;23042;-64
2021/05/10 19:07:33;;;;;;;2.58;1.32;;;;;;;18.49;42.48;97882.48;1804798;77;22907;-64
2021/05/10 19:10:13;;;;;;;;;;;;;;;18.35;41.80;97879.98;1805240;77;22935;-65
2021/05/10 19:12:51;;;;;;;;;;;;;;;18.18;42.69;97886.53;1804112;79;22779;-65